WXM80 ListenWXM80 Stop

You find our weather info also at:

UK Metoffice

WeatherCloud

Weather Underground

Northeastern Weather Network

AWEKAS

Citizen Weather Observer Program (CWOP)

HAMweather, WeatherForYou, PWS Weather


Weather Underground History page Text

Daily Summary for February 15, 2016 Units:  English    Metric   Both
« Previous Day
Next Day »
Daily Weekly Monthly Yearly Custom
  High: Low: Average:
Temperature: 36.1 °F 8.1 °F 22 °F
Dew Point: 35.3 °F 0.0 °F 16.5 °F
Humidity: 97 % 55 % 80 %
Wind Speed: 7.6 mph 0.0 mph 2.4 mph
Wind Gust: 11.5 mph - -
Wind:- - SE
Pressure: 30.55 in 30.08 in -
Precipitation: 0.37 in    
Historical Graphs
 
 
Tabular Data for February 15, 2016
Time Temperature Dew Point Pressure Wind Wind Speed Wind Gust Humidity Rainfall Rate (Hourly)
00:02 12.6 °F 0.6 °F 30.54 in West 0.5 mph 3.5 mph 58 % 0.00 in
00:07 12.7 °F 1.1 °F 30.54 in West 0.2 mph 1.2 mph 59 % 0.00 in
00:13 12.7 °F 1.1 °F 30.53 in WNW 0.5 mph 4.6 mph 59 % 0.00 in
00:18 12.8 °F 0.4 °F 30.53 in West 1.5 mph 4.0 mph 57 % 0.00 in
00:23 12.9 °F 0.5 °F 30.53 in North 1.2 mph 3.5 mph 57 % 0.00 in
00:28 13.0 °F 0.6 °F 30.53 in NE 1.0 mph 2.3 mph 57 % 0.00 in
00:33 13.2 °F 0.4 °F 30.53 in North 1.4 mph 3.0 mph 56 % 0.00 in
00:38 13.2 °F 0.0 °F 30.53 in WNW 0.1 mph 2.3 mph 55 % 0.00 in
00:43 13.4 °F 1.0 °F 30.53 in WNW 0.5 mph 1.2 mph 57 % 0.00 in
00:48 13.3 °F 2.0 °F 30.53 in WNW 0.1 mph 1.0 mph 60 % 0.00 in
00:53 13.3 °F 2.0 °F 30.53 in Calm   1.0 mph 60 % 0.00 in
00:58 13.2 °F 1.9 °F 30.53 in Calm     60 % 0.00 in
01:04 13.1 °F 1.8 °F 30.54 in Calm     60 % 0.00 in
01:09 13.0 °F 2.1 °F 30.54 in WNW 0.4 mph 1.2 mph 61 % 0.00 in
01:14 12.8 °F 2.6 °F 30.54 in WNW 0.7 mph 2.0 mph 63 % 0.00 in
01:19 12.6 °F 2.4 °F 30.54 in WNW 0.5 mph 1.2 mph 63 % 0.00 in
01:29 12.3 °F 2.4 °F 30.54 in WNW 0.2 mph 1.2 mph 64 % 0.00 in
01:34 12.2 °F 2.3 °F 30.54 in WNW 0.2 mph 1.2 mph 64 % 0.00 in
01:44 12.1 °F 2.2 °F 30.54 in WNW 0.2 mph 1.0 mph 64 % 0.00 in
01:55 11.9 °F 2.4 °F 30.55 in WNW 0.4 mph 1.2 mph 65 % 0.00 in
02:00 11.8 °F 2.3 °F 30.55 in West 2.1 mph 3.0 mph 65 % 0.00 in
02:05 11.7 °F 2.2 °F 30.55 in Calm   1.2 mph 65 % 0.00 in
02:10 11.6 °F 2.1 °F 30.54 in Calm     65 % 0.00 in
02:15 11.6 °F 2.1 °F 30.55 in Calm     65 % 0.00 in
02:20 11.5 °F 2.0 °F 30.55 in Calm     65 % 0.00 in
02:25 11.4 °F 1.9 °F 30.55 in Calm     65 % 0.00 in
02:30 11.3 °F 1.8 °F 30.55 in Calm     65 % 0.00 in
02:35 11.2 °F 2.0 °F 30.55 in Calm     66 % 0.00 in
02:40 11.1 °F 1.9 °F 30.54 in West 0.2 mph 1.2 mph 66 % 0.00 in
02:46 11.0 °F 2.2 °F 30.54 in West 1.3 mph 2.3 mph 67 % 0.00 in
02:51 10.8 °F 2.0 °F 30.54 in Calm   1.2 mph 67 % 0.00 in
02:56 10.7 °F 1.9 °F 30.55 in Calm   1.2 mph 67 % 0.00 in
03:01 10.6 °F 2.1 °F 30.55 in Calm     68 % 0.00 in
03:06 10.5 °F 2.0 °F 30.55 in Calm     68 % 0.00 in
03:16 10.1 °F 1.9 °F 30.55 in West 0.9 mph 1.2 mph 69 % 0.00 in
03:21 9.9 °F 2.1 °F 30.54 in West 0.6 mph 1.2 mph 70 % 0.00 in
03:26 9.8 °F 2.0 °F 30.54 in Calm     70 % 0.00 in
03:31 9.7 °F 2.2 °F 30.54 in Calm     71 % 0.00 in
03:37 9.6 °F 2.1 °F 30.55 in Calm     71 % 0.00 in
03:42 9.5 °F 2.3 °F 30.54 in Calm   1.2 mph 72 % 0.00 in
03:47 9.4 °F 2.2 °F 30.54 in West 1.0 mph 1.2 mph 72 % 0.00 in
03:52 9.3 °F 2.1 °F 30.54 in West 1.1 mph 2.3 mph 72 % 0.00 in
03:57 9.1 °F 1.9 °F 30.54 in West 0.5 mph 1.2 mph 72 % 0.00 in
04:02 9.0 °F 1.8 °F 30.54 in West 1.2 mph 2.3 mph 72 % 0.00 in
04:07 8.9 °F 1.7 °F 30.54 in West 0.3 mph 1.2 mph 72 % 0.00 in
04:12 8.8 °F 1.9 °F 30.53 in West 0.3 mph 1.2 mph 73 % 0.00 in
04:23 8.6 °F 1.7 °F 30.53 in Calm   1.2 mph 73 % 0.00 in
04:33 8.6 °F 1.7 °F 30.54 in West 0.3 mph 1.2 mph 73 % 0.00 in
04:38 8.5 °F 1.6 °F 30.54 in West 0.9 mph 2.3 mph 73 % 0.00 in
04:43 8.4 °F 1.5 °F 30.54 in West 0.4 mph 1.2 mph 73 % 0.00 in
04:48 8.4 °F 1.5 °F 30.54 in West 0.4 mph 1.2 mph 73 % 0.00 in
04:53 8.3 °F 1.4 °F 30.54 in West 1.3 mph 2.3 mph 73 % 0.00 in
04:58 8.3 °F 1.4 °F 30.54 in West 0.8 mph 2.3 mph 73 % 0.00 in
05:03 8.3 °F 1.4 °F 30.53 in Calm     73 % 0.00 in
05:08 8.3 °F 1.4 °F 30.53 in Calm     73 % 0.00 in
05:14 8.3 °F 1.4 °F 30.53 in Calm   1.2 mph 73 % 0.00 in
05:19 8.3 °F 1.4 °F 30.53 in Calm     73 % 0.00 in
05:24 8.3 °F 1.7 °F 30.53 in Calm     74 % 0.00 in
05:29 8.2 °F 1.6 °F 30.53 in Calm     74 % 0.00 in
05:34 8.2 °F 1.6 °F 30.53 in Calm     74 % 0.00 in
05:39 8.2 °F 1.6 °F 30.53 in Calm   1.0 mph 74 % 0.00 in
05:44 8.1 °F 1.5 °F 30.52 in Calm     74 % 0.00 in
05:49 8.1 °F 1.8 °F 30.53 in West 0.5 mph 2.3 mph 75 % 0.00 in
05:54 8.2 °F 1.9 °F 30.53 in West 0.6 mph 1.2 mph 75 % 0.00 in
05:59 8.1 °F 1.8 °F 30.54 in West 0.3 mph 1.2 mph 75 % 0.00 in
06:05 8.2 °F 1.9 °F 30.53 in Calm     75 % 0.00 in
06:10 8.2 °F 1.9 °F 30.53 in West 0.2 mph 1.2 mph 75 % 0.00 in
06:15 8.3 °F 2.3 °F 30.53 in West 0.1 mph 1.0 mph 76 % 0.00 in
06:20 8.4 °F 2.4 °F 30.54 in West 0.8 mph 2.3 mph 76 % 0.00 in
06:25 8.5 °F 2.2 °F 30.54 in West 0.2 mph 1.2 mph 75 % 0.00 in
06:30 8.6 °F 2.3 °F 30.53 in West 0.1 mph 1.2 mph 75 % 0.00 in
06:35 8.9 °F 2.6 °F 30.54 in Calm     75 % 0.00 in
06:40 9.0 °F 2.7 °F 30.54 in Calm     75 % 0.00 in
06:45 9.1 °F 2.5 °F 30.55 in Calm     74 % 0.00 in
06:50 9.3 °F 2.7 °F 30.54 in West 0.2 mph 1.2 mph 74 % 0.00 in
06:56 9.6 °F 3.0 °F 30.55 in Calm     74 % 0.00 in
07:01 9.8 °F 2.9 °F 30.55 in Calm     73 % 0.00 in
07:06 10.0 °F 2.8 °F 30.55 in Calm     72 % 0.00 in
07:11 10.3 °F 3.1 °F 30.55 in Calm   1.2 mph 72 % 0.00 in
07:16 10.5 °F 3.3 °F 30.55 in Calm     72 % 0.00 in
07:21 10.8 °F 3.2 °F 30.55 in Calm     71 % 0.00 in
07:26 11.0 °F 3.1 °F 30.55 in Calm     70 % 0.00 in
07:31 11.3 °F 3.4 °F 30.55 in Calm     70 % 0.00 in
07:36 11.6 °F 3.4 °F 30.54 in Calm     69 % 0.00 in
07:41 11.9 °F 3.4 °F 30.54 in Calm     68 % 0.00 in
07:47 12.3 °F 3.4 °F 30.54 in Calm     67 % 0.00 in
07:52 12.8 °F 3.9 °F 30.55 in Calm   1.2 mph 67 % 0.00 in
07:57 13.4 °F 4.5 °F 30.55 in Calm     67 % 0.00 in
08:02 13.8 °F 4.5 °F 30.54 in Calm     66 % 0.00 in
08:07 14.3 °F 5.0 °F 30.55 in Calm     66 % 0.00 in
08:12 14.8 °F 5.5 °F 30.55 in Calm     66 % 0.00 in
08:17 15.3 °F 5.6 °F 30.55 in Calm   1.2 mph 65 % 0.00 in
08:22 15.8 °F 5.8 °F 30.55 in Calm   1.2 mph 64 % 0.00 in
08:32 16.7 °F 6.3 °F 30.55 in SSE 0.9 mph 2.0 mph 63 % 0.00 in
08:38 17.1 °F 6.7 °F 30.55 in East 1.7 mph 2.3 mph 63 % 0.00 in
08:48 17.9 °F 8.1 °F 30.55 in SE 2.0 mph 3.5 mph 65 % 0.00 in
08:53 18.2 °F 8.4 °F 30.54 in East 1.3 mph 3.5 mph 65 % 0.00 in
08:58 18.5 °F 8.3 °F 30.54 in ESE 1.1 mph 2.3 mph 64 % 0.00 in
09:03 18.9 °F 8.7 °F 30.55 in ESE 1.9 mph 3.5 mph 64 % 0.00 in
09:08 19.2 °F 8.7 °F 30.55 in East 1.2 mph 3.5 mph 63 % 0.00 in
09:13 19.5 °F 8.9 °F 30.55 in East 1.8 mph 5.0 mph 63 % 0.00 in
09:18 19.8 °F 8.9 °F 30.54 in East 0.5 mph 3.5 mph 62 % 0.00 in
09:23 20.0 °F 9.4 °F 30.54 in ESE 1.1 mph 2.3 mph 63 % 0.00 in
09:29 20.3 °F 9.3 °F 30.54 in East 2.3 mph 5.0 mph 62 % 0.00 in
09:34 20.4 °F 9.4 °F 30.53 in East 3.1 mph 5.0 mph 62 % 0.00 in
09:39 20.5 °F 9.5 °F 30.53 in East 3.8 mph 6.0 mph 62 % 0.00 in
09:44 20.6 °F 9.6 °F 30.53 in SE 1.7 mph 3.5 mph 62 % 0.00 in
09:49 20.7 °F 9.4 °F 30.52 in East 2.5 mph 4.6 mph 61 % 0.00 in
09:54 20.8 °F 9.8 °F 30.52 in East 2.9 mph 6.0 mph 62 % 0.00 in
09:59 20.9 °F 9.9 °F 30.52 in East 2.4 mph 3.5 mph 62 % 0.00 in
10:04 21.1 °F 10.1 °F 30.52 in East 2.1 mph 4.6 mph 62 % 0.00 in
10:09 21.2 °F 10.2 °F 30.51 in East 0.8 mph 2.0 mph 62 % 0.00 in
10:14 21.3 °F 10.3 °F 30.51 in ESE 2.8 mph 4.6 mph 62 % 0.00 in
10:25 21.4 °F 10.7 °F 30.51 in ENE 1.6 mph 3.5 mph 63 % 0.00 in
10:30 21.5 °F 11.2 °F 30.51 in East 2.4 mph 4.6 mph 64 % 0.00 in
10:35 21.6 °F 11.6 °F 30.51 in East 1.2 mph 3.5 mph 65 % 0.00 in
10:40 21.6 °F 11.3 °F 30.50 in East 0.8 mph 2.3 mph 64 % 0.00 in
10:45 21.6 °F 11.6 °F 30.50 in East 1.3 mph 3.5 mph 65 % 0.00 in
10:50 21.8 °F 12.5 °F 30.50 in ESE 1.4 mph 3.5 mph 67 % 0.00 in
10:55 22.0 °F 12.7 °F 30.50 in East 1.2 mph 3.0 mph 67 % 0.00 in
11:00 22.1 °F 12.8 °F 30.50 in ENE 1.7 mph 3.5 mph 67 % 0.00 in
11:11 22.4 °F 13.4 °F 30.49 in East 2.9 mph 4.6 mph 68 % 0.00 in
11:21 22.7 °F 14.7 °F 30.49 in ENE 2.4 mph 4.6 mph 71 % 0.00 in
11:26 22.9 °F 14.9 °F 30.49 in East 2.3 mph 5.0 mph 71 % 0.00 in
11:31 22.9 °F 14.9 °F 30.48 in ESE 1.4 mph 3.5 mph 71 % 0.00 in
11:36 23.0 °F 15.0 °F 30.48 in ESE 2.0 mph 3.0 mph 71 % 0.00 in
11:41 23.1 °F 15.1 °F 30.48 in ESE 1.2 mph 3.5 mph 71 % 0.00 in
11:46 23.1 °F 15.4 °F 30.47 in East 1.9 mph 3.5 mph 72 % 0.00 in
11:51 23.2 °F 15.5 °F 30.47 in East 0.9 mph 2.3 mph 72 % 0.00 in
11:56 23.3 °F 15.9 °F 30.46 in East 2.8 mph 4.6 mph 73 % 0.00 in
12:02 23.4 °F 16.0 °F 30.46 in East 1.4 mph 2.3 mph 73 % 0.00 in
12:07 23.5 °F 16.4 °F 30.45 in East 1.6 mph 2.3 mph 74 % 0.00 in
12:12 23.5 °F 16.7 °F 30.45 in East 2.0 mph 3.5 mph 75 % 0.00 in
12:17 23.6 °F 17.1 °F 30.45 in East 2.7 mph 3.5 mph 76 % 0.00 in
12:22 23.6 °F 17.4 °F 30.45 in East 2.8 mph 4.6 mph 77 % 0.00 in
12:27 23.6 °F 17.7 °F 30.44 in East 0.8 mph 2.3 mph 78 % 0.00 in
12:32 23.6 °F 18.0 °F 30.44 in East 2.0 mph 2.3 mph 79 % 0.00 in
12:37 23.7 °F 18.1 °F 30.44 in East 0.4 mph 2.3 mph 79 % 0.00 in
12:42 23.7 °F 18.4 °F 30.43 in East 0.8 mph 2.3 mph 80 % 0.00 in
12:47 23.8 °F 18.5 °F 30.43 in East 1.6 mph 4.6 mph 80 % 0.00 in
12:53 23.8 °F 18.5 °F 30.42 in East 2.8 mph 3.5 mph 80 % 0.00 in
12:58 23.9 °F 18.9 °F 30.42 in East 4.0 mph 5.0 mph 81 % 0.00 in
13:03 23.9 °F 18.9 °F 30.42 in East 2.6 mph 4.6 mph 81 % 0.00 in
13:08 24.0 °F 19.3 °F 30.42 in East 2.8 mph 5.0 mph 82 % 0.00 in
13:13 24.2 °F 19.5 °F 30.42 in East 2.0 mph 3.5 mph 82 % 0.00 in
13:18 24.3 °F 19.9 °F 30.41 in East 2.7 mph 4.6 mph 83 % 0.00 in
13:23 24.4 °F 20.0 °F 30.41 in ENE 4.0 mph 5.8 mph 83 % 0.00 in
13:28 24.5 °F 20.4 °F 30.41 in East 3.4 mph 4.6 mph 84 % 0.00 in
13:38 24.8 °F 20.9 °F 30.41 in ENE 2.5 mph 4.6 mph 85 % 0.00 in
13:44 24.9 °F 21.0 °F 30.40 in East 3.5 mph 5.8 mph 85 % 0.00 in
13:49 25.0 °F 21.1 °F 30.40 in ENE 4.4 mph 5.8 mph 85 % 0.00 in
13:54 25.1 °F 21.2 °F 30.40 in East 4.2 mph 5.8 mph 85 % 0.00 in
13:59 25.2 °F 21.3 °F 30.40 in East 3.5 mph 5.0 mph 85 % 0.00 in
14:04 25.3 °F 21.7 °F 30.40 in East 2.8 mph 4.6 mph 86 % 0.00 in
14:09 25.4 °F 21.8 °F 30.39 in ESE 2.8 mph 5.0 mph 86 % 0.00 in
14:14 25.5 °F 21.9 °F 30.39 in East 2.4 mph 4.6 mph 86 % 0.00 in
14:19 25.6 °F 22.0 °F 30.39 in East 4.7 mph 6.9 mph 86 % 0.00 in
14:24 25.7 °F 22.1 °F 30.39 in East 3.8 mph 5.0 mph 86 % 0.00 in
14:35 25.9 °F 22.6 °F 30.38 in East 5.3 mph 7.0 mph 87 % 0.00 in
14:40 26.0 °F 22.7 °F 30.38 in East 4.8 mph 6.9 mph 87 % 0.00 in
14:45 26.0 °F 22.7 °F 30.38 in East 4.0 mph 5.8 mph 87 % 0.00 in
14:50 26.1 °F 23.0 °F 30.37 in East 5.5 mph 8.1 mph 88 % 0.00 in
14:55 26.2 °F 23.4 °F 30.37 in East 3.1 mph 5.0 mph 89 % 0.00 in
15:00 26.3 °F 23.5 °F 30.36 in East 2.2 mph 4.6 mph 89 % 0.00 in
15:05 26.5 °F 24.0 °F 30.37 in East 1.7 mph 5.0 mph 90 % 0.00 in
15:10 26.6 °F 24.1 °F 30.37 in East 1.8 mph 3.5 mph 90 % 0.00 in
15:15 26.7 °F 24.2 °F 30.36 in East 4.1 mph 5.8 mph 90 % 0.00 in
15:20 26.9 °F 24.4 °F 30.36 in East 2.8 mph 5.8 mph 90 % 0.00 in
15:26 27.0 °F 24.7 °F 30.36 in ENE 2.6 mph 4.6 mph 91 % 0.00 in
15:36 27.3 °F 25.0 °F 30.35 in East 3.7 mph 5.8 mph 91 % 0.00 in
15:41 27.5 °F 25.5 °F 30.35 in ENE 3.2 mph 5.8 mph 92 % 0.00 in
15:46 27.6 °F 25.6 °F 30.35 in ENE 2.6 mph 3.5 mph 92 % 0.00 in
15:51 27.8 °F 25.8 °F 30.35 in East 4.5 mph 5.0 mph 92 % 0.00 in
15:56 27.9 °F 25.9 °F 30.34 in East 2.7 mph 5.8 mph 92 % 0.00 in
16:01 28.1 °F 26.3 °F 30.35 in East 2.5 mph 5.8 mph 93 % 0.00 in
16:06 28.2 °F 26.4 °F 30.35 in ENE 3.1 mph 5.8 mph 93 % 0.00 in
16:11 28.3 °F 26.5 °F 30.34 in East 3.3 mph 5.8 mph 93 % 0.00 in
16:17 28.5 °F 26.7 °F 30.34 in ENE 4.5 mph 5.8 mph 93 % 0.00 in
16:22 28.7 °F 26.9 °F 30.34 in East 3.2 mph 5.0 mph 93 % 0.00 in
16:27 28.8 °F 27.0 °F 30.34 in East 3.6 mph 4.6 mph 93 % 0.00 in
16:32 29.0 °F 27.5 °F 30.33 in East 3.7 mph 6.0 mph 94 % 0.00 in
16:37 29.1 °F 27.6 °F 30.33 in East 5.6 mph 6.9 mph 94 % 0.00 in
16:42 29.2 °F 27.7 °F 30.33 in East 6.2 mph 8.0 mph 94 % 0.00 in
16:47 29.4 °F 27.9 °F 30.33 in East 4.9 mph 8.0 mph 94 % 0.01 in
16:52 29.6 °F 28.1 °F 30.32 in East 6.4 mph 8.1 mph 94 % 0.01 in
16:57 29.7 °F 28.4 °F 30.32 in East 6.0 mph 6.9 mph 95 % 0.01 in
17:02 29.9 °F 28.6 °F 30.32 in East 6.2 mph 7.0 mph 95 % 0.01 in
17:13 30.1 °F 28.8 °F 30.31 in East 6.3 mph 8.1 mph 95 % 0.01 in
17:18 30.2 °F 28.9 °F 30.31 in East 6.0 mph 6.9 mph 95 % 0.01 in
17:23 30.3 °F 29.0 °F 30.30 in East 6.8 mph 9.2 mph 95 % 0.01 in
17:28 30.3 °F 29.0 °F 30.30 in East 4.9 mph 6.0 mph 95 % 0.01 in
17:33 30.4 °F 29.1 °F 30.29 in East 5.8 mph 8.1 mph 95 % 0.01 in
17:38 30.5 °F 29.2 °F 30.29 in ENE 6.6 mph 8.1 mph 95 % 0.01 in
17:43 30.6 °F 29.3 °F 30.29 in East 6.5 mph 7.0 mph 95 % 0.02 in
17:48 30.6 °F 29.3 °F 30.29 in East 6.1 mph 7.0 mph 95 % 0.01 in
17:54 30.7 °F 29.4 °F 30.28 in ENE 6.0 mph 8.1 mph 95 % 0.01 in
18:04 30.8 °F 29.5 °F 30.28 in East 5.2 mph 6.9 mph 95 % 0.01 in
18:09 30.9 °F 29.9 °F 30.27 in ESE 6.1 mph 8.1 mph 96 % 0.01 in
18:14 31.0 °F 30.0 °F 30.27 in East 6.4 mph 9.2 mph 96 % 0.02 in
18:19 31.0 °F 30.0 °F 30.27 in East 5.8 mph 9.2 mph 96 % 0.02 in
18:24 31.1 °F 30.1 °F 30.27 in East 5.1 mph 8.1 mph 96 % 0.02 in
18:29 31.1 °F 30.1 °F 30.26 in East 5.8 mph 6.9 mph 96 % 0.02 in
18:34 31.2 °F 30.2 °F 30.26 in East 6.2 mph 7.0 mph 96 % 0.02 in
18:39 31.4 °F 30.4 °F 30.26 in East 5.7 mph 7.0 mph 96 % 0.03 in
18:45 31.5 °F 30.5 °F 30.25 in East 5.5 mph 5.8 mph 96 % 0.02 in
18:50 31.6 °F 30.6 °F 30.25 in East 4.5 mph 5.8 mph 96 % 0.03 in
19:00 32.2 °F 31.2 °F 30.24 in East 6.4 mph 8.1 mph 96 % 0.03 in
19:10 32.5 °F 31.5 °F 30.24 in East 2.9 mph 3.5 mph 96 % 0.04 in
19:15 32.6 °F 31.6 °F 30.23 in East 5.5 mph 8.0 mph 96 % 0.03 in
19:20 32.8 °F 31.8 °F 30.23 in East 4.0 mph 5.8 mph 96 % 0.04 in
19:25 32.9 °F 31.9 °F 30.23 in ESE 6.1 mph 6.9 mph 96 % 0.04 in
19:30 33.0 °F 32.0 °F 30.23 in East 4.5 mph 6.9 mph 96 % 0.04 in
19:36 33.1 °F 32.3 °F 30.23 in East 5.5 mph 6.9 mph 97 % 0.04 in
19:46 33.4 °F 32.4 °F 30.22 in East 6.4 mph 8.1 mph 96 % 0.04 in
19:51 33.4 °F 32.4 °F 30.22 in East 4.5 mph 5.8 mph 96 % 0.03 in
19:56 33.5 °F 32.7 °F 30.22 in East 5.0 mph 7.0 mph 97 % 0.03 in
20:01 33.7 °F 32.9 °F 30.21 in ENE 6.3 mph 8.1 mph 97 % 0.04 in
20:06 33.8 °F 33.0 °F 30.20 in ENE 5.9 mph 9.2 mph 97 % 0.04 in
20:11 33.9 °F 33.1 °F 30.20 in East 5.0 mph 6.9 mph 97 % 0.03 in
20:16 34.1 °F 33.3 °F 30.19 in East 5.9 mph 11.5 mph 97 % 0.04 in
20:21 34.3 °F 33.5 °F 30.20 in ENE 6.0 mph 8.0 mph 97 % 0.03 in
20:27 34.3 °F 33.5 °F 30.19 in East 4.3 mph 8.1 mph 97 % 0.03 in
20:32 34.4 °F 33.6 °F 30.18 in ENE 5.7 mph 8.1 mph 97 % 0.03 in
20:37 34.5 °F 33.7 °F 30.17 in East 7.6 mph 9.2 mph 97 % 0.04 in
20:42 34.5 °F 33.7 °F 30.17 in East 7.1 mph 9.2 mph 97 % 0.03 in
20:47 34.6 °F 33.8 °F 30.18 in East 6.5 mph 8.1 mph 97 % 0.03 in
20:52 34.6 °F 33.8 °F 30.17 in ENE 7.0 mph 9.2 mph 97 % 0.03 in
20:57 34.6 °F 33.8 °F 30.17 in ENE 6.2 mph 8.1 mph 97 % 0.02 in
21:02 34.6 °F 33.8 °F 30.17 in East 2.4 mph 3.5 mph 97 % 0.02 in
21:07 34.6 °F 33.8 °F 30.17 in ENE 6.3 mph 7.0 mph 97 % 0.02 in
21:12 34.8 °F 34.0 °F 30.16 in East 2.7 mph 8.1 mph 97 % 0.02 in
21:18 34.8 °F 34.0 °F 30.15 in ENE 6.9 mph 8.1 mph 97 % 0.01 in
21:23 35.0 °F 34.2 °F 30.16 in ENE 4.6 mph 6.9 mph 97 % 0.01 in
21:28 35.1 °F 34.3 °F 30.14 in ENE 6.3 mph 8.1 mph 97 % 0.01 in
21:33 35.2 °F 34.4 °F 30.13 in East 4.7 mph 10.4 mph 97 % 0.01 in
21:38 35.3 °F 34.5 °F 30.13 in ENE 6.0 mph 8.1 mph 97 % 0.00 in
21:43 35.4 °F 34.6 °F 30.13 in East 1.9 mph 2.3 mph 97 % 0.00 in
21:48 35.6 °F 34.8 °F 30.13 in ENE 4.5 mph 6.9 mph 97 % 0.00 in
21:53 35.7 °F 34.9 °F 30.13 in ENE 3.8 mph 6.9 mph 97 % 0.00 in
21:58 35.8 °F 35.0 °F 30.13 in NE 1.2 mph 2.3 mph 97 % 0.00 in
22:03 35.8 °F 35.0 °F 30.12 in East 2.1 mph 3.0 mph 97 % 0.00 in
22:08 35.8 °F 35.0 °F 30.12 in East 1.9 mph 3.5 mph 97 % 0.00 in
22:13 35.9 °F 35.1 °F 30.12 in ENE 1.2 mph 3.5 mph 97 % 0.00 in
22:19 35.9 °F 35.1 °F 30.12 in ENE 0.5 mph 2.3 mph 97 % 0.00 in
22:24 35.9 °F 35.1 °F 30.11 in ENE 2.6 mph 4.6 mph 97 % 0.00 in
22:29 36.0 °F 35.2 °F 30.11 in ENE 2.5 mph 3.5 mph 97 % 0.00 in
22:34 36.0 °F 35.2 °F 30.10 in NE 1.7 mph 3.5 mph 97 % 0.00 in
22:44 36.1 °F 35.3 °F 30.10 in ENE 0.7 mph 2.3 mph 97 % 0.01 in
22:59 36.1 °F 35.3 °F 30.09 in NNE 2.6 mph 3.5 mph 97 % 0.02 in
23:04 36.0 °F 35.2 °F 30.09 in NNE 2.9 mph 3.5 mph 97 % 0.03 in
23:10 35.9 °F 35.1 °F 30.09 in NNE 3.6 mph 4.0 mph 97 % 0.03 in
23:15 35.9 °F 35.1 °F 30.09 in ENE 4.0 mph 5.8 mph 97 % 0.04 in
23:20 35.8 °F 35.0 °F 30.09 in NNE 1.0 mph 3.5 mph 97 % 0.05 in
23:25 35.8 °F 35.0 °F 30.09 in NE 4.0 mph 8.1 mph 97 % 0.08 in
23:30 35.8 °F 35.0 °F 30.09 in ENE 1.4 mph 3.5 mph 97 % 0.11 in
23:35 35.7 °F 34.9 °F 30.09 in North 1.6 mph 3.5 mph 97 % 0.13 in
23:40 35.7 °F 34.9 °F 30.09 in NNE 6.1 mph 9.2 mph 97 % 0.14 in
23:45 35.6 °F 34.8 °F 30.08 in NNE 5.8 mph 7.0 mph 97 % 0.16 in
23:50 35.5 °F 34.7 °F 30.08 in NNW 3.6 mph 5.8 mph 97 % 0.19 in
23:55 35.4 °F 34.6 °F 30.08 in NNE 3.4 mph 4.0 mph 97 % 0.23 in
Crab Meadow Weather
Compliments of Weather Underground - 2.75 mb

Script developed by  Jim McMurry - jmcmurry@mwt.net Adapted for the template by  Wim van der Kuil - Leuven-Template.eu

Snow: Snowflakes generally fall from the sky at speeds between one and five miles per hour.